createdAt,value
2019-03-22T00:02:30.577Z,26.10
2019-03-22T00:05:10.952Z,29.83
2019-03-22T00:07:51.888Z,28.70
2019-03-22T00:13:17.666Z,35.87
2019-03-22T00:15:58.450Z,27.57
2019-03-22T00:18:41.807Z,29.60
2019-03-22T00:21:23.212Z,30.33
2019-03-22T00:24:04.016Z,31.53
2019-03-22T00:26:44.889Z,29.77
2019-03-22T00:29:25.831Z,29.17
2019-03-22T00:32:06.202Z,29.40
2019-03-22T00:34:47.261Z,32.90
2019-03-22T00:37:28.311Z,30.27
2019-03-22T00:42:54.050Z,31.67
2019-03-22T00:45:35.121Z,22.77
2019-03-22T00:48:15.614Z,28.83
2019-03-22T00:50:56.282Z,27.23
2019-03-22T00:53:37.266Z,26.73
2019-03-22T00:56:18.569Z,30.23
2019-03-22T00:58:59.616Z,26.93
2019-03-22T01:01:40.104Z,35.50
2019-03-22T01:04:21.335Z,31.70
2019-03-22T01:07:01.979Z,34.83
2019-03-22T01:09:42.760Z,34.13
2019-03-22T01:12:23.393Z,33.33
2019-03-22T01:15:04.297Z,37.73
2019-03-22T01:17:45.196Z,32.17
2019-03-22T01:20:25.868Z,36.50
2019-03-22T01:23:06.590Z,38.70
2019-03-22T01:25:47.258Z,33.37
2019-03-22T01:28:27.951Z,35.10
2019-03-22T01:33:51.895Z,28.80
2019-03-22T01:36:32.629Z,33.87
2019-03-22T01:39:13.310Z,27.40
2019-03-22T01:41:54.046Z,33.37
2019-03-22T01:44:34.748Z,27.93
2019-03-22T01:47:15.644Z,26.60
2019-03-22T01:49:56.658Z,27.87
2019-03-22T01:52:38.193Z,28.97
2019-03-22T01:58:03.033Z,27.47
2019-03-22T02:00:43.832Z,30.60
2019-03-22T02:03:24.185Z,31.20
2019-03-22T02:06:04.712Z,26.57
2019-03-22T02:08:45.684Z,31.77
2019-03-22T02:11:26.754Z,25.23
2019-03-22T02:14:07.635Z,26.43
2019-03-22T02:16:48.421Z,31.30
2019-03-22T02:19:29.297Z,30.47
2019-03-22T02:22:10.474Z,31.90
2019-03-22T02:24:51.652Z,28.77
2019-03-22T02:27:32.421Z,34.70
2019-03-22T02:30:12.945Z,30.80
2019-03-22T02:32:53.406Z,35.67
2019-03-22T02:35:34.143Z,30.93
2019-03-22T02:38:14.921Z,35.77
2019-03-22T02:40:56.127Z,37.27
2019-03-22T02:43:36.719Z,34.23
2019-03-22T02:46:17.557Z,29.40
2019-03-22T02:48:58.407Z,28.33
2019-03-22T02:51:39.350Z,35.77
2019-03-22T02:54:20.021Z,34.60
2019-03-22T02:57:00.610Z,26.50
2019-03-22T02:59:41.263Z,27.90
2019-03-22T03:02:21.974Z,27.83
2019-03-22T03:05:02.270Z,26.50
2019-03-22T03:07:43.055Z,22.60
2019-03-22T03:10:23.803Z,25.00
2019-03-22T03:13:04.838Z,25.37
2019-03-22T03:15:45.932Z,26.23
2019-03-22T03:18:26.497Z,26.80
2019-03-22T03:20:56.185Z,26.03
2019-03-22T03:26:38.912Z,24.60
2019-03-22T03:29:27.471Z,27.20
2019-03-22T03:32:15.755Z,30.33
2019-03-22T03:35:04.321Z,26.20
2019-03-22T03:37:52.603Z,29.20
2019-03-22T03:40:40.891Z,33.67
2019-03-22T03:43:29.193Z,27.10
2019-03-22T03:46:17.470Z,28.60
2019-03-22T03:49:06.825Z,23.70
2019-03-22T03:51:55.098Z,26.20
2019-03-22T03:54:43.391Z,25.57
2019-03-22T03:57:24.252Z,32.87
2019-03-22T04:00:05.026Z,29.60
2019-03-22T04:02:46.077Z,29.73
2019-03-22T04:05:26.673Z,30.03
2019-03-22T04:08:07.743Z,27.50
2019-03-22T04:10:48.153Z,33.50
2019-03-22T04:13:28.865Z,35.37
2019-03-22T04:16:09.594Z,32.33
2019-03-22T04:18:50.355Z,28.70
2019-03-22T04:21:31.102Z,38.80
2019-03-22T04:24:11.535Z,40.03
2019-03-22T04:26:52.429Z,38.70
2019-03-22T04:29:33.370Z,36.50
2019-03-22T04:32:14.392Z,37.90
2019-03-22T04:34:55.128Z,31.33
2019-03-22T04:37:35.842Z,29.13
2019-03-22T04:40:16.477Z,34.77
2019-03-22T04:45:40.373Z,35.90
2019-03-22T04:48:21.227Z,42.40
2019-03-22T04:51:01.998Z,36.60
2019-03-22T04:53:42.692Z,38.33
2019-03-22T04:56:23.544Z,42.27
2019-03-22T04:59:04.444Z,42.10
2019-03-22T05:01:45.567Z,31.90
2019-03-22T05:04:26.032Z,38.00
2019-03-22T05:07:06.607Z,34.50
2019-03-22T05:09:47.334Z,37.47
2019-03-22T05:12:27.993Z,30.90
2019-03-22T05:15:08.880Z,27.90
2019-03-22T05:17:49.684Z,30.93
2019-03-22T05:20:30.304Z,29.40
2019-03-22T05:23:11.068Z,32.10
2019-03-22T05:25:52.149Z,35.53
2019-03-22T05:28:32.976Z,32.43
2019-03-22T05:31:13.644Z,36.40
2019-03-22T05:33:54.637Z,39.00
2019-03-22T05:36:35.686Z,42.83
2019-03-22T05:39:16.424Z,36.80
2019-03-22T05:41:57.412Z,44.00
2019-03-22T05:44:38.584Z,34.30
2019-03-22T05:47:19.449Z,39.53
2019-03-22T05:50:00.417Z,33.33
2019-03-22T05:52:41.033Z,32.13
2019-03-22T05:55:22.047Z,31.93
2019-03-22T05:58:02.880Z,33.23
2019-03-22T06:00:43.936Z,29.53
2019-03-22T06:06:07.499Z,32.73
2019-03-22T06:08:48.261Z,27.03
2019-03-22T06:11:28.986Z,36.20
2019-03-22T06:14:09.839Z,32.53
2019-03-22T06:16:50.908Z,35.37
2019-03-22T06:22:14.668Z,33.60
2019-03-22T06:24:55.624Z,42.23
2019-03-22T06:27:36.184Z,36.50
2019-03-22T06:30:16.858Z,40.50
2019-03-22T06:32:57.525Z,45.47
2019-03-22T06:35:38.009Z,40.27
2019-03-22T06:38:18.913Z,42.50
2019-03-22T06:40:59.604Z,41.30
2019-03-22T06:43:40.324Z,38.77
2019-03-22T06:46:20.879Z,43.73
2019-03-22T06:51:43.705Z,42.10
2019-03-22T06:54:31.556Z,42.47
2019-03-22T06:57:07.056Z,41.33
2019-03-22T06:59:47.885Z,39.33
2019-03-22T07:02:28.745Z,43.80
2019-03-22T07:07:52.624Z,37.80
2019-03-22T07:10:33.317Z,41.33
2019-03-22T07:13:13.971Z,39.20
2019-03-22T07:15:54.905Z,48.13
2019-03-22T07:18:35.539Z,42.70
2019-03-22T07:21:16.236Z,42.70
2019-03-22T07:23:57.084Z,44.00
2019-03-22T07:26:37.968Z,39.23
2019-03-22T07:29:18.457Z,39.60
2019-03-22T07:31:47.916Z,35.63
2019-03-22T07:34:17.229Z,45.20
2019-03-22T07:37:05.840Z,41.10
2019-03-22T07:39:54.112Z,37.50
2019-03-22T07:42:42.723Z,34.30
2019-03-22T07:45:30.987Z,38.47
2019-03-22T07:48:19.280Z,32.33
2019-03-22T07:51:07.576Z,37.33
2019-03-22T07:53:55.907Z,34.17
2019-03-22T07:56:36.671Z,33.40
2019-03-22T07:59:17.648Z,42.63
2019-03-22T08:01:58.140Z,37.00
2019-03-22T08:04:38.510Z,43.23
2019-03-22T08:07:19.389Z,41.90
2019-03-22T08:10:00.575Z,51.47
2019-03-22T08:12:41.124Z,47.50
2019-03-22T08:15:21.816Z,43.97
2019-03-22T08:18:02.450Z,45.90
2019-03-22T08:23:25.154Z,57.97
2019-03-22T08:26:05.860Z,50.30
2019-03-22T08:28:46.729Z,55.40
2019-03-22T08:31:27.440Z,53.60
2019-03-22T08:34:08.086Z,51.63
2019-03-22T08:36:48.956Z,51.33
2019-03-22T08:39:29.610Z,51.30
2019-03-22T08:42:10.048Z,47.77
2019-03-22T08:44:50.843Z,52.50
2019-03-22T08:47:34.344Z,53.67
2019-03-22T08:50:14.441Z,50.93
2019-03-22T08:52:55.253Z,49.50
2019-03-22T08:55:35.684Z,54.77
2019-03-22T08:58:18.567Z,60.73
2019-03-22T09:00:59.136Z,62.33
2019-03-22T09:03:39.893Z,55.93
2019-03-22T09:06:20.901Z,60.83
2019-03-22T09:09:01.543Z,54.43
2019-03-22T09:11:42.374Z,51.97
2019-03-22T09:14:23.122Z,56.87
2019-03-22T09:17:03.856Z,54.27
2019-03-22T09:19:44.620Z,61.47
2019-03-22T09:22:25.515Z,53.20
2019-03-22T09:25:06.354Z,58.90
2019-03-22T09:27:47.185Z,53.83
2019-03-22T09:30:27.941Z,55.10
2019-03-22T09:33:08.851Z,56.07
2019-03-22T09:35:49.263Z,48.50
2019-03-22T09:38:29.955Z,54.43
2019-03-22T09:41:11.408Z,72.03
2019-03-22T09:43:52.390Z,53.03
2019-03-22T09:46:33.107Z,51.60
2019-03-22T09:49:13.770Z,50.73
2019-03-22T09:51:55.342Z,56.83
2019-03-22T09:54:36.388Z,58.70
2019-03-22T09:57:17.291Z,57.00
2019-03-22T09:59:58.097Z,71.10
2019-03-22T10:02:38.760Z,53.67
2019-03-22T10:05:19.616Z,47.43
2019-03-22T10:08:00.415Z,64.83
2019-03-22T10:10:41.092Z,53.00
2019-03-22T10:13:21.716Z,51.17
2019-03-22T10:16:02.820Z,54.70
2019-03-22T10:18:43.590Z,60.00
2019-03-22T10:21:24.548Z,64.97
2019-03-22T10:24:05.461Z,56.90
2019-03-22T10:26:46.757Z,57.77
2019-03-22T10:29:27.108Z,55.50
2019-03-22T10:32:07.887Z,61.93
2019-03-22T10:34:48.670Z,61.43
2019-03-22T10:37:29.707Z,63.13
2019-03-22T10:40:10.826Z,55.70
2019-03-22T10:42:52.151Z,63.40
2019-03-22T10:45:32.784Z,59.20
2019-03-22T10:48:13.448Z,54.80
2019-03-22T10:50:54.228Z,56.27
2019-03-22T10:53:34.957Z,57.67
2019-03-22T10:56:15.644Z,58.07
2019-03-22T10:58:56.867Z,61.30
2019-03-22T11:01:46.822Z,58.87
2019-03-22T11:04:20.021Z,56.77
2019-03-22T11:09:44.876Z,53.30
2019-03-22T11:15:07.931Z,54.80
2019-03-22T11:17:48.973Z,51.90
2019-03-22T11:20:29.524Z,61.50
2019-03-22T11:23:10.132Z,55.53
2019-03-22T11:25:50.971Z,57.43
2019-03-22T11:28:32.428Z,55.43
2019-03-22T11:31:13.580Z,55.87
2019-03-22T11:33:54.782Z,70.43
2019-03-22T11:36:35.745Z,62.77
2019-03-22T11:39:16.648Z,57.60
2019-03-22T11:41:57.143Z,60.27
2019-03-22T11:44:37.865Z,55.27
2019-03-22T11:50:03.395Z,57.33
2019-03-22T11:52:44.603Z,56.57
2019-03-22T11:55:25.503Z,52.37
2019-03-22T11:58:05.999Z,58.00
2019-03-22T12:00:46.792Z,60.80
2019-03-22T12:03:27.643Z,51.13
2019-03-22T12:06:08.836Z,62.43
2019-03-22T12:08:49.332Z,55.90
2019-03-22T12:11:30.248Z,60.33
2019-03-22T12:14:10.861Z,60.57
2019-03-22T12:16:51.874Z,58.93
2019-03-22T12:19:32.536Z,57.17
2019-03-22T12:22:13.245Z,63.73
2019-03-22T12:24:54.164Z,56.43
2019-03-22T12:27:36.787Z,56.47
2019-03-22T12:30:17.313Z,56.23
2019-03-22T12:32:58.069Z,65.20
2019-03-22T12:35:38.808Z,59.90
2019-03-22T12:38:19.788Z,66.40
2019-03-22T12:41:00.282Z,55.90
2019-03-22T12:43:41.525Z,61.13
2019-03-22T12:46:22.752Z,54.40
2019-03-22T12:49:03.424Z,57.93
2019-03-22T12:51:44.303Z,55.50
2019-03-22T12:54:25.516Z,57.80
2019-03-22T12:57:06.694Z,55.10
2019-03-22T12:59:47.165Z,58.93
2019-03-22T13:02:28.396Z,54.47
2019-03-22T13:05:09.327Z,53.03
2019-03-22T13:07:49.744Z,55.10
2019-03-22T13:10:30.454Z,56.27
2019-03-22T13:13:11.003Z,55.87
2019-03-22T13:15:51.478Z,57.47
2019-03-22T13:18:33.221Z,51.30
2019-03-22T13:21:13.639Z,55.53
2019-03-22T13:23:54.331Z,48.90
2019-03-22T13:26:35.260Z,54.97
2019-03-22T13:29:16.247Z,51.37
2019-03-22T13:31:56.991Z,47.70
2019-03-22T13:34:37.756Z,48.73
2019-03-22T13:37:19.007Z,57.17
2019-03-22T13:39:59.803Z,49.20
2019-03-22T13:42:40.404Z,53.27
2019-03-22T13:45:20.981Z,49.13
2019-03-22T13:48:02.087Z,50.73
2019-03-22T13:50:43.295Z,54.50
2019-03-22T13:53:24.116Z,51.50
2019-03-22T13:56:05.022Z,48.10
2019-03-22T13:58:45.679Z,47.43
2019-03-22T14:01:26.701Z,54.63
2019-03-22T14:06:50.300Z,47.47
2019-03-22T14:09:31.113Z,49.10
2019-03-22T14:12:12.184Z,49.17
2019-03-22T14:14:52.901Z,49.27
2019-03-22T14:17:33.606Z,47.90
2019-03-22T14:20:14.956Z,45.40
2019-03-22T14:22:55.593Z,43.27
2019-03-22T14:25:36.118Z,41.93
2019-03-22T14:28:16.872Z,44.80
2019-03-22T14:30:57.821Z,42.53
2019-03-22T14:33:38.710Z,37.73
2019-03-22T14:36:20.409Z,41.23
2019-03-22T14:39:01.356Z,41.00
2019-03-22T14:41:42.463Z,39.20
2019-03-22T14:44:25.475Z,40.80
2019-03-22T14:47:06.064Z,39.70
2019-03-22T14:49:46.985Z,41.40
2019-03-22T14:52:27.455Z,40.17
2019-03-22T14:55:08.565Z,36.23
2019-03-22T14:57:52.263Z,34.90
2019-03-22T15:00:32.440Z,31.27
2019-03-22T15:03:32.020Z,33.33
2019-03-22T15:06:12.876Z,39.17
2019-03-22T15:08:53.279Z,38.00
2019-03-22T15:11:34.032Z,42.63
2019-03-22T15:14:33.921Z,43.20
2019-03-22T15:17:33.380Z,34.70
2019-03-22T15:20:27.856Z,39.90
2019-03-22T15:26:33.245Z,34.13
2019-03-22T15:29:39.600Z,35.50
2019-03-22T15:32:39.100Z,38.60
2019-03-22T15:35:38.538Z,34.53
2019-03-22T15:38:40.890Z,33.60
2019-03-22T15:41:21.764Z,33.27
2019-03-22T15:44:02.514Z,32.63
2019-03-22T15:46:43.340Z,29.47
2019-03-22T15:49:24.069Z,31.47
2019-03-22T15:52:04.656Z,34.80
2019-03-22T15:54:45.374Z,34.10
2019-03-22T15:57:27.099Z,31.80
2019-03-22T16:00:07.919Z,32.07
2019-03-22T16:02:48.873Z,33.87
2019-03-22T16:05:29.660Z,32.53
2019-03-22T16:08:10.397Z,32.83
2019-03-22T16:10:51.385Z,29.27
2019-03-22T16:13:31.898Z,32.80
2019-03-22T16:16:12.599Z,32.23
2019-03-22T16:18:53.244Z,32.80
2019-03-22T16:21:33.651Z,31.87
2019-03-22T16:24:14.418Z,31.73
2019-03-22T16:26:55.049Z,33.70
2019-03-22T16:29:35.721Z,32.27
2019-03-22T16:32:16.136Z,30.43
2019-03-22T16:34:56.905Z,32.50
2019-03-22T16:37:37.279Z,32.30
2019-03-22T16:40:24.050Z,37.60
2019-03-22T16:43:00.676Z,39.23
2019-03-22T16:45:41.662Z,32.40
2019-03-22T16:48:22.708Z,34.40
2019-03-22T16:51:03.165Z,31.70
2019-03-22T16:53:43.852Z,28.70
2019-03-22T16:56:24.600Z,28.43
2019-03-22T16:59:04.947Z,26.97
2019-03-22T17:01:45.755Z,29.30
2019-03-22T17:04:26.704Z,29.77
2019-03-22T17:07:07.760Z,26.90
2019-03-22T17:09:48.965Z,24.80
2019-03-22T17:12:29.995Z,26.57
2019-03-22T17:15:11.497Z,31.30
2019-03-22T17:17:52.723Z,25.33
2019-03-22T17:20:33.402Z,27.60
2019-03-22T17:23:14.944Z,27.80
2019-03-22T17:25:55.928Z,27.80
2019-03-22T17:28:37.110Z,30.20
2019-03-22T17:31:17.853Z,28.27
2019-03-22T17:33:58.735Z,27.40
2019-03-22T17:36:39.649Z,30.90
2019-03-22T17:39:20.539Z,27.00
2019-03-22T17:42:01.304Z,29.53
2019-03-22T17:44:42.090Z,32.43
2019-03-22T17:47:23.295Z,29.90
2019-03-22T17:52:46.756Z,27.00
2019-03-22T17:55:27.668Z,26.60
2019-03-22T17:58:08.465Z,27.07
2019-03-22T18:00:49.524Z,26.20
2019-03-22T18:03:30.328Z,24.57
2019-03-22T18:06:10.678Z,26.00
2019-03-22T18:08:51.714Z,19.60
2019-03-22T18:11:32.375Z,20.73
2019-03-22T18:14:13.240Z,22.83
2019-03-22T18:16:53.884Z,26.50
2019-03-22T18:19:34.558Z,25.70
2019-03-22T18:22:14.901Z,20.27
2019-03-22T18:24:55.785Z,21.50
2019-03-22T18:27:36.560Z,22.50
2019-03-22T18:30:17.538Z,22.60
2019-03-22T18:32:58.678Z,22.43
2019-03-22T18:35:39.583Z,22.87
2019-03-22T18:38:20.471Z,18.13
2019-03-22T18:41:01.530Z,17.23
2019-03-22T18:43:42.548Z,19.10
2019-03-22T18:46:23.057Z,17.43
2019-03-22T18:49:03.536Z,17.93
2019-03-22T18:51:44.347Z,18.60
2019-03-22T18:54:25.381Z,22.13
2019-03-22T18:57:06.092Z,15.70
2019-03-22T18:59:46.837Z,17.87
2019-03-22T19:02:27.425Z,16.30
2019-03-22T19:05:08.016Z,17.77
2019-03-22T19:07:48.849Z,22.00
2019-03-22T19:10:29.767Z,16.10
2019-03-22T19:13:10.724Z,16.70
2019-03-22T19:18:33.570Z,17.67
2019-03-22T19:21:14.376Z,22.27
2019-03-22T19:23:55.241Z,22.50
2019-03-22T19:26:36.048Z,21.93
2019-03-22T19:29:16.638Z,20.43
2019-03-22T19:31:57.295Z,19.00
2019-03-22T19:34:38.296Z,18.60
2019-03-22T19:37:19.224Z,21.80
2019-03-22T19:39:59.939Z,18.50
2019-03-22T19:42:40.854Z,26.37
2019-03-22T19:45:21.569Z,22.27
2019-03-22T19:48:02.448Z,19.77
2019-03-22T19:50:43.019Z,17.20
2019-03-22T19:53:23.652Z,20.10
2019-03-22T19:56:04.429Z,18.27
2019-03-22T19:58:45.232Z,17.53
2019-03-22T20:01:26.152Z,18.40
2019-03-22T20:04:06.760Z,17.90
2019-03-22T20:06:47.668Z,23.73
2019-03-22T20:09:28.144Z,18.90
2019-03-22T20:14:51.128Z,19.27
2019-03-22T20:17:32.370Z,15.10
2019-03-22T20:20:13.227Z,17.33
2019-03-22T20:22:54.224Z,19.23
2019-03-22T20:25:35.164Z,18.57
2019-03-22T20:28:15.584Z,18.60
2019-03-22T20:30:56.425Z,18.10
2019-03-22T20:33:37.176Z,12.80
2019-03-22T20:36:18.416Z,20.47
2019-03-22T20:38:59.098Z,17.70
2019-03-22T20:41:40.018Z,18.97
2019-03-22T20:44:20.920Z,20.70
2019-03-22T20:47:01.533Z,19.40
2019-03-22T20:49:42.286Z,21.33
2019-03-22T20:52:23.444Z,17.53
2019-03-22T20:55:04.069Z,18.57
2019-03-22T20:57:45.137Z,21.67
2019-03-22T21:00:27.472Z,18.30
2019-03-22T21:03:08.738Z,23.40
2019-03-22T21:05:49.761Z,21.00
2019-03-22T21:08:30.623Z,20.47
2019-03-22T21:11:11.321Z,27.20
2019-03-22T21:13:52.729Z,21.63
2019-03-22T21:16:33.225Z,22.87
2019-03-22T21:19:14.180Z,22.77
2019-03-22T21:24:36.745Z,23.87
2019-03-22T21:27:17.359Z,27.07
2019-03-22T21:29:58.074Z,19.50
2019-03-22T21:32:45.186Z,25.43
2019-03-22T21:35:23.129Z,25.23
2019-03-22T21:38:10.809Z,27.47
2019-03-22T21:40:46.919Z,26.90
2019-03-22T21:43:27.889Z,27.83
2019-03-22T21:46:08.317Z,23.70
2019-03-22T21:48:49.325Z,22.97
2019-03-22T21:51:29.789Z,29.33
2019-03-22T21:54:10.847Z,29.87
2019-03-22T21:56:51.225Z,29.50
2019-03-22T21:59:31.808Z,33.03
2019-03-22T22:02:12.566Z,26.40
2019-03-22T22:04:53.165Z,27.97
2019-03-22T22:07:34.212Z,30.00
2019-03-22T22:10:15.053Z,23.47
2019-03-22T22:12:57.046Z,27.93
2019-03-22T22:15:38.623Z,27.60
2019-03-22T22:18:20.174Z,32.90
2019-03-22T22:21:01.009Z,31.73
2019-03-22T22:23:41.352Z,28.03
2019-03-22T22:26:22.184Z,27.77
2019-03-22T22:29:03.146Z,27.77
2019-03-22T22:31:43.751Z,26.93
2019-03-22T22:34:24.345Z,30.80
2019-03-22T22:37:05.132Z,31.13
2019-03-22T22:42:35.064Z,29.47
2019-03-22T22:45:15.614Z,35.70
2019-03-22T22:47:56.379Z,30.30
2019-03-22T22:50:37.047Z,35.53
2019-03-22T22:53:18.305Z,33.03
2019-03-22T22:55:59.588Z,33.33
2019-03-22T22:58:40.364Z,32.03
2019-03-22T23:01:20.775Z,30.10
2019-03-22T23:04:01.257Z,31.33
2019-03-22T23:06:42.108Z,28.87
2019-03-22T23:09:23.064Z,29.60
2019-03-22T23:12:03.968Z,33.53
2019-03-22T23:14:45.009Z,36.47
2019-03-22T23:17:25.477Z,28.43
2019-03-22T23:20:06.081Z,29.17
2019-03-22T23:22:46.760Z,32.90
2019-03-22T23:25:27.445Z,30.67
2019-03-22T23:30:52.659Z,33.17
2019-03-22T23:36:20.376Z,36.13
2019-03-22T23:38:58.961Z,35.20
2019-03-22T23:41:40.246Z,26.80
2019-03-22T23:44:21.245Z,28.93
2019-03-22T23:47:01.981Z,30.00
2019-03-22T23:49:43.542Z,27.87
2019-03-22T23:52:24.904Z,37.23
2019-03-22T23:55:05.264Z,35.30
